Time;durP1;ratioP1;P1;durP2;ratioP2;P2;SDS_P1;SDS_P2;PMS_P1;PMS_P2;Temp;Humidity;BMP_temperature;BMP_pressure;BME280_temperature;BME280_humidity;BME280_pressure;Samples;Min_cycle;Max_cycle;Signal;HPM_P1;HPM_P2
2023/07/08 00:01:04;;;;;;;13.20;9.43;;;29.20;99.90;;;;;;1930317;74;21112;-81
2023/07/08 00:03:42;;;;;;;18.57;9.48;;;29.30;99.90;;;;;;1941572;73;21122;-81
2023/07/08 00:06:31;;;;;;;13.03;9.00;;;29.30;99.90;;;;;;1931772;73;21131;-77
2023/07/08 00:09:13;;;;;;;15.15;8.95;;;29.40;99.90;;;;;;1920294;74;21808;-77
2023/07/08 00:11:49;;;;;;;14.47;8.30;;;29.30;99.90;;;;;;1929868;74;21068;-77
2023/07/08 00:14:23;;;;;;;14.98;8.58;;;29.30;99.90;;;;;;1933949;74;21156;-77
2023/07/08 00:16:56;;;;;;;17.92;9.88;;;29.40;99.90;;;;;;1935251;74;21125;-80
2023/07/08 00:19:31;;;;;;;13.15;8.30;;;29.40;99.90;;;;;;1930839;73;21122;-78
2023/07/08 00:22:14;;;;;;;14.55;8.70;;;29.50;99.90;;;;;;1903302;74;21076;-80
2023/07/08 00:25:04;;;;;;;12.00;8.43;;;29.50;99.90;;;;;;1930557;74;21202;-80
2023/07/08 00:27:47;;;;;;;16.97;9.53;;;29.50;99.90;;;;;;1893391;74;21114;-81
2023/07/08 00:30:31;;;;;;;20.10;8.75;;;29.50;99.90;;;;;;1843486;77;21220;-82
2023/07/08 00:33:08;;;;;;;28.20;10.93;;;29.60;99.90;;;;;;1855347;76;21161;-82
2023/07/08 00:35:46;;;;;;;15.53;7.92;;;29.60;99.90;;;;;;1887338;74;21616;-79
2023/07/08 00:38:27;;;;;;;11.85;7.90;;;29.60;99.90;;;;;;1839387;76;21095;-79
2023/07/08 00:41:11;;;;;;;14.20;7.47;;;29.60;99.90;;;;;;1823944;76;21154;-80
2023/07/08 00:43:57;;;;;;;12.25;7.40;;;29.70;99.90;;;;;;1854909;77;21065;-80
2023/07/08 00:46:34;;;;;;;10.08;7.25;;;29.80;99.90;;;;;;1872662;75;21635;-80
2023/07/08 00:49:12;;;;;;;12.25;7.80;;;29.80;99.90;;;;;;1831986;77;21394;-80
2023/07/08 00:51:48;;;;;;;8.90;6.50;;;29.90;99.90;;;;;;1873429;75;21149;-80
2023/07/08 00:54:22;;;;;;;11.80;7.40;;;29.90;99.90;;;;;;1913833;74;21135;-81
2023/07/08 00:57:04;;;;;;;12.50;7.35;;;30.00;99.90;;;;;;1907802;74;21047;-80
2023/07/08 00:59:48;;;;;;;11.70;6.95;;;30.00;99.90;;;;;;1913028;74;21122;-82
2023/07/08 01:02:26;;;;;;;15.60;7.92;;;30.10;99.90;;;;;;1904353;74;21193;-80
2023/07/08 01:05:05;;;;;;;12.13;7.78;;;30.20;99.90;;;;;;1900046;74;21511;-80
2023/07/08 01:07:44;;;;;;;15.63;7.33;;;30.20;99.90;;;;;;1896733;74;21131;-80
2023/07/08 01:10:18;;;;;;;;;;;30.30;99.90;;;;;;1894321;76;21147;-82
2023/07/08 01:12:54;;;;;;;16.07;8.00;;;30.40;99.90;;;;;;1902176;74;20171;-80
2023/07/08 01:15:30;;;;;;;23.65;9.18;;;30.40;99.90;;;;;;1872173;76;21103;-80
2023/07/08 01:18:07;;;;;;;17.87;8.30;;;30.60;99.90;;;;;;1918545;74;21060;-82
2023/07/08 01:21:06;;;;;;;13.00;8.05;;;30.60;99.90;;;;;;1894079;74;21238;-79
2023/07/08 01:23:37;;;;;;;24.75;8.08;;;30.70;99.90;;;;;;1915745;74;21677;-79
2023/07/08 01:26:15;;;;;;;29.37;7.78;;;30.90;99.90;;;;;;1913928;73;21159;-79
2023/07/08 01:28:58;;;;;;;18.82;7.95;;;31.00;99.90;;;;;;1892419;74;21131;-78
2023/07/08 01:31:36;;;;;;;23.47;7.70;;;31.10;99.70;;;;;;1900765;74;21589;-79
2023/07/08 01:34:19;;;;;;;31.60;10.30;;;31.20;99.70;;;;;;1915142;74;21135;-78
2023/07/08 01:36:57;;;;;;;23.22;8.70;;;31.20;99.70;;;;;;1864298;76;21103;-75
2023/07/08 01:39:35;;;;;;;22.60;8.10;;;31.30;99.50;;;;;;1899451;74;21060;-75
2023/07/08 01:42:13;;;;;;;26.95;7.17;;;31.40;99.40;;;;;;1913881;74;21165;-77
2023/07/08 01:44:47;;;;;;;41.28;8.93;;;31.60;99.20;;;;;;1916253;74;21147;-77
2023/07/08 01:47:22;;;;;;;34.73;10.18;;;31.70;99.10;;;;;;1902702;74;21060;-81
2023/07/08 01:49:55;;;;;;;16.25;7.37;;;31.80;99.00;;;;;;1904989;74;21550;-78
2023/07/08 01:52:29;;;;;;;25.68;7.50;;;31.90;98.40;;;;;;1849628;77;21185;-79
2023/07/08 01:55:04;;;;;;;12.80;6.33;;;31.90;98.50;;;;;;1905610;74;22455;-82
2023/07/08 01:57:36;;;;;;;16.27;6.25;;;32.00;98.30;;;;;;1872602;76;21173;-80
2023/07/08 02:00:12;;;;;;;12.47;6.40;;;32.10;98.40;;;;;;1873018;76;21181;-80
2023/07/08 02:02:46;;;;;;;11.20;6.58;;;32.10;98.30;;;;;;1906230;74;21157;-80
2023/07/08 02:05:20;;;;;;;19.77;7.45;;;32.10;97.80;;;;;;1884014;75;21511;-79
2023/07/08 02:07:57;;;;;;;13.75;6.20;;;32.00;98.00;;;;;;1897202;74;21719;-83
2023/07/08 02:10:31;;;;;;;17.50;6.58;;;32.00;98.20;;;;;;1905620;74;21419;-79
2023/07/08 02:13:14;;;;;;;12.73;6.47;;;32.10;98.40;;;;;;1908964;74;21147;-82
2023/07/08 02:16:03;;;;;;;25.77;8.43;;;32.20;98.20;;;;;;1909971;74;21190;-80
2023/07/08 02:18:38;;;;;;;29.00;10.13;;;32.20;98.30;;;;;;1902888;74;21113;-78
2023/07/08 02:21:17;;;;;;;24.65;7.97;;;32.30;98.00;;;;;;1880143;74;21131;-78
2023/07/08 02:23:51;;;;;;;17.75;7.55;;;32.40;98.10;;;;;;1915715;74;21213;-78
2023/07/08 02:26:26;;;;;;;15.40;7.95;;;32.40;97.90;;;;;;1912754;74;21724;-77
2023/07/08 02:29:04;;;;;;;15.43;8.23;;;32.60;97.60;;;;;;1876868;75;21071;-78
2023/07/08 02:31:38;;;;;;;10.75;7.37;;;32.60;97.40;;;;;;1882172;75;21268;-78
2023/07/08 02:34:15;;;;;;;16.97;7.95;;;32.60;97.40;;;;;;1893239;75;21080;-77
2023/07/08 02:36:50;;;;;;;11.93;6.30;;;32.60;97.50;;;;;;1868732;75;21911;-76
2023/07/08 02:39:27;;;;;;;12.90;6.25;;;32.70;97.50;;;;;;1799727;77;21107;-77
2023/07/08 02:42:10;;;;;;;9.53;5.95;;;32.70;96.70;;;;;;1839836;76;21213;-78
2023/07/08 02:44:50;;;;;;;12.73;6.30;;;32.70;96.80;;;;;;1838883;77;21228;-78
2023/07/08 02:47:25;;;;;;;10.00;5.83;;;32.60;97.30;;;;;;1830737;78;21147;-78
2023/07/08 02:49:59;;;;;;;11.12;6.45;;;32.70;97.00;;;;;;1834464;77;21523;-77
2023/07/08 02:52:30;;;;;;;12.88;6.12;;;32.70;96.90;;;;;;1883706;76;21074;-77
2023/07/08 02:55:02;;;;;;;10.85;6.92;;;32.80;96.60;;;;;;1874436;76;21550;-82
2023/07/08 02:57:34;;;;;;;15.88;7.08;;;32.80;96.80;;;;;;1880305;76;21130;-79
2023/07/08 03:00:14;;;;;;;7.75;5.85;;;32.80;96.80;;;;;;1877861;76;21072;-81
2023/07/08 03:02:48;;;;;;;25.12;6.97;;;32.80;97.00;;;;;;1882125;76;21116;-83
2023/07/08 03:05:25;;;;;;;15.53;6.47;;;32.80;96.80;;;;;;1875651;76;21106;-78
2023/07/08 03:07:59;;;;;;;26.35;8.13;;;32.90;96.90;;;;;;1879410;76;22301;-81
2023/07/08 03:10:39;;;;;;;17.17;6.67;;;32.90;96.20;;;;;;1846072;76;21142;-79
2023/07/08 03:13:21;;;;;;;10.85;5.42;;;33.10;96.20;;;;;;1874966;76;21709;-79
2023/07/08 03:15:55;;;;;;;19.10;6.50;;;33.20;95.90;;;;;;1803898;78;21162;-79
2023/07/08 03:18:45;;;;;;;10.43;6.40;;;33.30;95.70;;;;;;1876896;76;21107;-82
2023/07/08 03:21:17;;;;;;;14.05;6.28;;;33.30;95.20;;;;;;1878369;76;21122;-79
2023/07/08 03:23:53;;;;;;;13.53;5.67;;;33.30;95.30;;;;;;1827617;78;21205;-79
2023/07/08 03:26:29;;;;;;;8.75;5.30;;;33.30;95.40;;;;;;1871749;76;21155;-78
2023/07/08 03:29:05;;;;;;;21.57;6.93;;;33.40;95.70;;;;;;1889473;75;21668;-81
2023/07/08 03:31:43;;;;;;;13.00;5.70;;;33.50;95.50;;;;;;1892268;75;21100;-81
2023/07/08 03:34:18;;;;;;;8.98;5.40;;;33.60;95.00;;;;;;1909977;75;21192;-81
2023/07/08 03:36:53;;;;;;;14.03;5.95;;;33.60;94.70;;;;;;1891516;75;21161;-82
2023/07/08 03:39:30;;;;;;;11.25;5.65;;;33.60;94.60;;;;;;1860952;75;21116;-81
2023/07/08 03:42:03;;;;;;;;;;;33.60;95.10;;;;;;1841307;77;21168;-82
2023/07/08 03:44:40;;;;;;;14.07;6.35;;;33.60;95.50;;;;;;1866466;76;20271;-82
2023/07/08 03:47:17;;;;;;;17.87;6.22;;;33.80;94.30;;;;;;1859806;76;21646;-78
2023/07/08 03:49:50;;;;;;;38.38;9.00;;;33.90;94.30;;;;;;1857970;77;21169;-78
2023/07/08 03:52:24;;;;;;;12.53;6.35;;;34.00;93.80;;;;;;1833041;77;21649;-77
2023/07/08 03:54:58;;;;;;;12.30;5.97;;;34.20;93.60;;;;;;1836777;77;21119;-80
2023/07/08 03:57:48;;;;;;;11.70;5.28;;;34.30;93.40;;;;;;1829985;77;21084;-79
2023/07/08 04:00:23;;;;;;;9.53;6.13;;;34.40;92.80;;;;;;1901157;75;21258;-82
2023/07/08 04:03:00;;;;;;;11.20;6.37;;;34.30;93.20;;;;;;1891538;75;21620;-80
2023/07/08 04:05:35;;;;;;;11.28;6.12;;;34.10;93.70;;;;;;1886459;75;21185;-81
2023/07/08 04:08:17;;;;;;;42.17;10.18;;;34.10;93.60;;;;;;1895357;74;21209;-82
2023/07/08 04:10:55;;;;;;;15.93;6.30;;;34.10;93.80;;;;;;1898758;75;21181;-80
2023/07/08 04:13:30;;;;;;;14.90;6.05;;;34.20;93.20;;;;;;1887219;75;21169;-82
2023/07/08 04:16:08;;;;;;;11.83;5.62;;;34.30;93.10;;;;;;1906648;75;21136;-76
2023/07/08 04:18:54;;;;;;;9.05;4.80;;;34.30;93.00;;;;;;1895228;75;21541;-76
2023/07/08 04:21:46;;;;;;;11.28;5.65;;;34.50;92.10;;;;;;1884476;75;21567;-78
2023/07/08 04:24:31;;;;;;;14.05;6.17;;;34.50;92.60;;;;;;1882466;75;21225;-76
2023/07/08 04:27:26;;;;;;;10.50;5.28;;;34.50;92.60;;;;;;1886055;75;21087;-74
2023/07/08 04:30:23;;;;;;;15.28;6.87;;;34.50;92.50;;;;;;1906710;75;21193;-77
2023/07/08 04:33:12;;;;;;;;;;;34.50;92.70;;;;;;1891501;75;21203;-78
2023/07/08 04:36:11;;;;;;;11.28;4.60;;;34.60;91.10;;;;;;1892797;75;20229;-76
2023/07/08 04:39:04;;;;;;;10.95;5.20;;;34.60;91.70;;;;;;1889495;75;21145;-82
2023/07/08 04:41:43;;;;;;;8.70;4.75;;;34.70;91.70;;;;;;1878666;75;21115;-80
2023/07/08 04:44:24;;;;;;;12.50;5.30;;;34.90;91.20;;;;;;1895612;75;21323;-77
2023/07/08 04:47:08;;;;;;;12.60;5.42;;;;;;;;;;1896249;75;21143;-80
2023/07/08 04:49:58;;;;;;;12.85;5.00;;;35.10;90.40;;;;;;1856691;77;21102;-83
2023/07/08 04:52:31;;;;;;;25.72;6.50;;;35.20;90.20;;;;;;1844076;77;21052;-82
2023/07/08 04:55:05;;;;;;;12.60;5.47;;;35.10;90.60;;;;;;1847224;77;21534;-81
2023/07/08 04:57:39;;;;;;;13.38;5.10;;;35.10;90.70;;;;;;1890500;75;21314;-84
2023/07/08 05:00:22;;;;;;;14.93;5.53;;;35.00;90.60;;;;;;1885732;75;21137;-80
2023/07/08 05:03:11;;;;;;;16.23;4.70;;;34.90;91.00;;;;;;1890740;75;21076;-80
2023/07/08 05:05:45;;;;;;;12.80;4.90;;;34.80;90.30;;;;;;1891447;75;21143;-80
2023/07/08 05:08:18;;;;;;;8.83;4.17;;;34.70;90.10;;;;;;1888253;75;21228;-77
2023/07/08 05:10:51;;;;;;;8.20;4.35;;;34.70;90.00;;;;;;1887491;75;21111;-79
2023/07/08 05:13:28;;;;;;;4.60;3.10;;;34.70;90.20;;;;;;1903051;75;21111;-80
2023/07/08 05:16:01;;;;;;;7.12;3.55;;;34.80;87.30;;;;;;1900314;75;21174;-80
2023/07/08 05:18:50;;;;;;;4.85;2.83;;;35.00;87.90;;;;;;1891802;75;21185;-79
2023/07/08 05:21:22;;;;;;;5.72;3.58;;;35.10;87.40;;;;;;1880633;75;21108;-79
2023/07/08 05:23:55;;;;;;;6.53;3.58;;;35.30;87.10;;;;;;1880165;75;21138;-79
2023/07/08 05:26:28;;;;;;;8.48;3.80;;;;;;;;;;1880377;75;21213;-78
2023/07/08 05:29:14;;;;;;;9.08;5.00;;;35.60;86.50;;;;;;1879817;75;21637;-80
2023/07/08 05:31:47;;;;;;;9.30;4.10;;;35.70;87.70;;;;;;1898803;75;21063;-77
2023/07/08 05:34:25;;;;;;;9.03;4.70;;;35.60;87.60;;;;;;1886331;75;21049;-75
2023/07/08 05:37:00;;;;;;;7.37;4.15;;;35.60;89.40;;;;;;1880636;75;21139;-78
2023/07/08 05:39:34;;;;;;;7.20;4.30;;;35.60;87.90;;;;;;1883073;75;21076;-79
2023/07/08 05:42:08;;;;;;;;;;;35.60;89.00;;;;;;1900652;75;21244;-78
2023/07/08 05:44:57;;;;;;;8.55;5.10;;;35.50;88.30;;;;;;1887568;75;20162;-77
2023/07/08 05:47:32;;;;;;;8.80;4.35;;;35.50;87.00;;;;;;1876843;75;21696;-77
2023/07/08 05:50:07;;;;;;;7.92;4.28;;;35.50;87.00;;;;;;1903485;75;21044;-77
2023/07/08 05:52:40;;;;;;;12.47;10.98;;;35.50;87.90;;;;;;1894621;75;21634;-78
2023/07/08 05:55:19;;;;;;;9.80;5.40;;;35.60;88.60;;;;;;1904654;75;21063;-77
2023/07/08 05:57:59;;;;;;;7.55;4.47;;;35.60;86.70;;;;;;1896670;75;21155;-77
2023/07/08 06:00:35;;;;;;;6.80;4.58;;;35.60;86.40;;;;;;1883334;75;21134;-77
2023/07/08 06:03:10;;;;;;;9.20;4.50;;;35.60;85.90;;;;;;1895499;75;21546;-77
2023/07/08 06:05:41;;;;;;;13.13;6.00;;;35.60;86.00;;;;;;1882664;75;21183;-76
2023/07/08 06:08:19;;;;;;;13.50;5.05;;;35.70;86.50;;;;;;1895985;75;21068;-78
2023/07/08 06:10:53;;;;;;;18.37;6.03;;;35.70;86.80;;;;;;1910622;75;21135;-80
2023/07/08 06:13:32;;;;;;;9.68;5.30;;;35.90;88.80;;;;;;1887587;75;21194;-80
2023/07/08 06:16:05;;;;;;;11.35;4.80;;;36.10;90.70;;;;;;1898827;75;21194;-79
2023/07/08 06:18:44;;;;;;;12.33;5.17;;;35.90;90.40;;;;;;1897444;75;21112;-79
2023/07/08 06:21:16;;;;;;;7.78;4.55;;;36.00;90.90;;;;;;1879413;75;21829;-78
2023/07/08 06:24:00;;;;;;;12.13;5.40;;;35.90;90.80;;;;;;1891268;75;21190;-76
2023/07/08 06:26:50;;;;;;;12.75;6.28;;;35.80;90.20;;;;;;1894420;75;21145;-78
2023/07/08 06:29:29;;;;;;;9.43;5.30;;;35.70;90.10;;;;;;1903134;75;21075;-78
2023/07/08 06:32:03;;;;;;;10.75;4.83;;;35.70;89.60;;;;;;1904341;75;21068;-79
2023/07/08 06:34:40;;;;;;;7.90;4.25;;;35.80;89.80;;;;;;1873078;75;21526;-79
2023/07/08 06:37:12;;;;;;;9.53;4.87;;;35.70;90.10;;;;;;1881470;75;21131;-77
2023/07/08 06:39:50;;;;;;;13.30;4.83;;;35.80;90.20;;;;;;1880130;75;21111;-78
2023/07/08 06:42:26;;;;;;;14.65;4.90;;;35.80;90.30;;;;;;1859208;76;21139;-76
2023/07/08 06:45:00;;;;;;;7.80;5.05;;;35.70;90.70;;;;;;1853042;77;21205;-77
2023/07/08 06:47:36;;;;;;;11.87;5.23;;;35.50;90.20;;;;;;1873752;75;21230;-77
2023/07/08 06:50:10;;;;;;;10.43;5.25;;;35.40;90.70;;;;;;1879187;76;21496;-78
2023/07/08 06:52:48;;;;;;;14.53;5.95;;;35.30;90.60;;;;;;1845829;76;21159;-78
2023/07/08 06:55:21;;;;;;;10.00;5.25;;;35.20;90.60;;;;;;1863809;75;21728;-78
2023/07/08 06:58:00;;;;;;;13.70;4.58;;;35.10;90.80;;;;;;1835410;77;21239;-78
2023/07/08 07:00:31;;;;;;;6.30;4.33;;;34.90;90.20;;;;;;1846101;77;21147;-79
2023/07/08 07:03:05;;;;;;;16.67;9.75;;;34.90;90.10;;;;;;1846690;77;21068;-77
2023/07/08 07:05:50;;;;;;;12.73;5.37;;;35.00;90.50;;;;;;1887377;75;21523;-77
2023/07/08 07:08:29;;;;;;;7.05;4.00;;;35.10;90.50;;;;;;1890276;75;21128;-79
2023/07/08 07:11:19;;;;;;;11.05;4.78;;;35.10;90.50;;;;;;1872600;75;21099;-77
2023/07/08 07:14:08;;;;;;;8.28;4.42;;;35.30;90.30;;;;;;1852977;76;21117;-78
2023/07/08 07:16:49;;;;;;;10.57;3.90;;;35.50;90.30;;;;;;1847402;77;21553;-76
2023/07/08 07:19:29;;;;;;;6.08;4.30;;;35.60;89.60;;;;;;1836196;77;21210;-79
2023/07/08 07:22:18;;;;;;;14.25;5.37;;;35.40;88.40;;;;;;1835532;77;21110;-77
2023/07/08 07:25:00;;;;;;;12.45;4.60;;;35.60;89.10;;;;;;1858262;76;21166;-77
2023/07/08 07:27:34;;;;;;;8.23;4.53;;;35.40;89.80;;;;;;1904663;75;21235;-79
2023/07/08 07:30:15;;;;;;;6.45;4.30;;;35.30;90.20;;;;;;1900294;75;21193;-78
2023/07/08 07:32:51;;;;;;;7.58;4.12;;;35.60;90.10;;;;;;1895674;75;21152;-77
2023/07/08 07:35:46;;;;;;;8.03;3.98;;;35.40;90.30;;;;;;1866124;76;21235;-79
2023/07/08 07:38:21;;;;;;;8.98;4.85;;;35.40;90.30;;;;;;1859287;77;21148;-79
2023/07/08 07:41:06;;;;;;;8.38;4.30;;;35.20;90.70;;;;;;1844726;77;21157;-80
2023/07/08 07:43:53;;;;;;;16.77;5.10;;;35.30;91.10;;;;;;1894684;74;21217;-78
2023/07/08 07:46:29;;;;;;;8.50;3.83;;;35.10;91.10;;;;;;1879528;75;21130;-77
2023/07/08 07:49:07;;;;;;;5.08;3.67;;;35.10;90.90;;;;;;1880003;75;21162;-76
2023/07/08 07:51:51;;;;;;;9.88;4.22;;;35.10;90.90;;;;;;1891625;75;21278;-78
2023/07/08 07:54:28;;;;;;;6.03;3.98;;;35.20;90.90;;;;;;1884908;75;21286;-78
2023/07/08 07:57:11;;;;;;;11.78;4.87;;;35.30;91.30;;;;;;1888145;75;21130;-76
2023/07/08 07:59:54;;;;;;;7.05;3.98;;;35.20;94.40;;;;;;1893397;75;21107;-77
2023/07/08 08:02:26;;;;;;;9.18;4.40;;;35.10;93.20;;;;;;1886163;75;21644;-79
2023/07/08 08:05:04;;;;;;;8.15;4.00;;;35.00;91.30;;;;;;1879422;75;21083;-79
2023/07/08 08:07:41;;;;;;;5.28;4.17;;;35.00;91.90;;;;;;1900235;75;21136;-79
2023/07/08 08:10:15;;;;;;;7.03;4.00;;;35.20;93.10;;;;;;1904598;75;21092;-79
2023/07/08 08:12:53;;;;;;;6.45;4.47;;;35.10;92.30;;;;;;1882675;75;21621;-79
2023/07/08 08:15:33;;;;;;;6.20;3.60;;;35.00;93.00;;;;;;1888255;75;21173;-79
2023/07/08 08:18:10;;;;;;;5.70;3.62;;;35.00;93.50;;;;;;1895063;75;21104;-80
2023/07/08 08:20:49;;;;;;;8.08;4.90;;;35.00;93.90;;;;;;1897534;75;21222;-77
2023/07/08 08:23:38;;;;;;;7.90;4.30;;;35.10;92.10;;;;;;1906075;75;21115;-78
2023/07/08 08:26:13;;;;;;;7.65;4.60;;;34.90;92.20;;;;;;1888023;75;21222;-80
2023/07/08 08:28:47;;;;;;;6.22;4.30;;;35.00;93.00;;;;;;1898494;75;21714;-78
2023/07/08 08:31:31;;;;;;;7.92;4.05;;;35.00;91.30;;;;;;1896298;75;21155;-78
2023/07/08 08:34:03;;;;;;;8.10;4.33;;;35.20;92.50;;;;;;1904728;75;21210;-78
2023/07/08 08:36:55;;;;;;;6.03;3.77;;;35.10;92.50;;;;;;1897641;75;21079;-79
2023/07/08 08:39:30;;;;;;;4.72;3.65;;;35.10;92.40;;;;;;1893409;75;21107;-79
2023/07/08 08:42:27;;;;;;;10.00;4.55;;;35.30;92.40;;;;;;1902246;75;21307;-78
2023/07/08 08:45:06;;;;;;;10.65;4.50;;;35.10;92.40;;;;;;1900085;75;21163;-80
2023/07/08 08:48:06;;;;;;;7.37;4.53;;;35.10;92.50;;;;;;1895420;75;21157;-79
2023/07/08 08:50:52;;;;;;;7.72;4.22;;;35.10;92.90;;;;;;1889881;75;21152;-78
2023/07/08 08:53:28;;;;;;;7.93;4.17;;;35.10;93.20;;;;;;1891853;74;21152;-78
2023/07/08 08:56:22;;;;;;;5.83;3.95;;;35.10;92.70;;;;;;1890036;75;21124;-78
2023/07/08 08:59:04;;;;;;;6.33;3.77;;;35.10;92.70;;;;;;1895527;75;21127;-77
2023/07/08 09:01:43;;;;;;;8.03;4.42;;;35.30;92.80;;;;;;1910745;75;21165;-78
2023/07/08 09:04:26;;;;;;;10.40;4.55;;;35.10;92.30;;;;;;1885894;75;21596;-79
2023/07/08 09:07:18;;;;;;;7.62;4.28;;;35.10;92.50;;;;;;1893540;75;21092;-79
2023/07/08 09:10:08;;;;;;;6.28;3.87;;;35.10;92.40;;;;;;1887119;75;21062;-76
2023/07/08 09:12:58;;;;;;;7.50;4.80;;;35.00;92.50;;;;;;1906053;75;21149;-77
2023/07/08 09:15:53;;;;;;;6.05;4.20;;;35.00;92.50;;;;;;1907419;75;21422;-78
2023/07/08 09:19:03;;;;;;;9.28;4.42;;;35.00;92.60;;;;;;1892531;75;21123;-79
2023/07/08 09:22:07;;;;;;;10.65;4.20;;;35.00;92.80;;;;;;1899081;75;21189;-79
2023/07/08 09:25:15;;;;;;;5.65;4.62;;;34.90;92.70;;;;;;1900562;75;21049;-77
2023/07/08 09:27:54;;;;;;;6.08;4.03;;;35.10;93.10;;;;;;1899617;75;21135;-78
2023/07/08 09:30:28;;;;;;;9.68;5.08;;;34.90;93.20;;;;;;1901748;74;21255;-80
2023/07/08 09:33:10;;;;;;;7.62;4.25;;;34.90;92.80;;;;;;1906103;74;21237;-78
2023/07/08 09:35:48;;;;;;;8.53;4.53;;;34.80;92.50;;;;;;1911896;74;21143;-77
2023/07/08 09:38:23;;;;;;;6.97;4.35;;;34.80;92.60;;;;;;1919082;74;21549;-78
2023/07/08 09:41:14;;;;;;;8.58;4.80;;;34.90;93.20;;;;;;1899677;74;21138;-79
2023/07/08 09:43:56;;;;;;;8.83;4.97;;;34.80;93.00;;;;;;1876728;76;21135;-79
2023/07/08 09:46:32;;;;;;;6.75;4.58;;;34.90;93.00;;;;;;1918329;74;21180;-80
2023/07/08 09:49:21;;;;;;;8.70;4.55;;;34.90;93.30;;;;;;1893461;74;21046;-77
2023/07/08 09:52:01;;;;;;;31.65;10.60;;;34.80;93.20;;;;;;1914694;74;21099;-80
2023/07/08 09:54:40;;;;;;;11.38;6.05;;;34.70;93.50;;;;;;1918295;74;21224;-78
2023/07/08 09:57:34;;;;;;;7.65;4.80;;;34.60;92.20;;;;;;1916600;74;21087;-79
2023/07/08 10:00:13;;;;;;;10.80;5.22;;;34.60;92.70;;;;;;1875825;76;21049;-80
2023/07/08 10:03:07;;;;;;;10.40;4.83;;;34.60;93.90;;;;;;1907784;74;21100;-77
2023/07/08 10:05:51;;;;;;;8.13;4.50;;;34.50;93.80;;;;;;1900663;74;21126;-79
2023/07/08 10:08:31;;;;;;;9.80;7.10;;;34.50;94.00;;;;;;1910099;74;21107;-79
2023/07/08 10:11:20;;;;;;;9.15;5.53;;;34.40;94.20;;;;;;1877306;75;21133;-80
2023/07/08 10:14:24;;;;;;;7.97;4.78;;;34.60;93.90;;;;;;1841056;76;21100;-79
2023/07/08 10:17:18;;;;;;;11.03;5.08;;;34.40;93.90;;;;;;1904853;74;21516;-78
2023/07/08 10:19:51;;;;;;;8.78;5.58;;;34.40;93.80;;;;;;1905717;74;21150;-80
2023/07/08 10:22:41;;;;;;;6.37;4.60;;;34.50;93.80;;;;;;1881271;75;21569;-80
2023/07/08 10:25:32;;;;;;;9.65;5.10;;;34.50;93.50;;;;;;1864027;76;21141;-81
2023/07/08 10:28:27;;;;;;;9.83;4.70;;;34.40;93.50;;;;;;1911259;74;21208;-80
2023/07/08 10:31:24;;;;;;;7.72;4.47;;;34.40;94.20;;;;;;1882326;75;21146;-78
2023/07/08 10:34:16;;;;;;;8.65;4.33;;;34.50;94.80;;;;;;1900271;74;21083;-80
2023/07/08 10:37:05;;;;;;;9.25;5.20;;;34.30;92.80;;;;;;1899961;74;21090;-80
2023/07/08 10:39:45;;;;;;;13.60;5.03;;;34.30;91.60;;;;;;1888301;75;21683;-79
2023/07/08 10:42:28;;;;;;;7.90;4.62;;;34.30;94.50;;;;;;1861949;76;21730;-79
2023/07/08 10:45:15;;;;;;;8.10;4.30;;;34.20;93.40;;;;;;1904011;74;21134;-79
2023/07/08 10:48:03;;;;;;;7.30;4.65;;;34.40;93.70;;;;;;1902525;74;21224;-79
2023/07/08 10:50:58;;;;;;;8.30;4.92;;;34.30;94.00;;;;;;1892849;74;21110;-78
2023/07/08 10:54:11;;;;;;;6.60;4.97;;;34.20;93.80;;;;;;1889306;74;21190;-78
2023/07/08 10:57:13;;;;;;;12.30;5.37;;;34.10;93.90;;;;;;1891812;74;21167;-77
2023/07/08 11:00:03;;;;;;;10.85;5.47;;;34.30;94.30;;;;;;1895117;74;21082;-79
2023/07/08 11:03:14;;;;;;;9.20;4.80;;;34.20;94.40;;;;;;1892888;74;21087;-79
2023/07/08 11:05:53;;;;;;;8.08;5.00;;;34.20;94.90;;;;;;1889635;74;21205;-76
2023/07/08 11:08:26;;;;;;;8.18;5.12;;;34.10;94.70;;;;;;1890036;74;21155;-77
2023/07/08 11:11:44;;;;;;;10.18;5.50;;;34.20;94.70;;;;;;1891383;74;21166;-77
2023/07/08 11:14:30;;;;;;;9.65;5.33;;;34.00;95.20;;;;;;1794806;78;21173;-79
2023/07/08 11:17:18;;;;;;;10.90;6.33;;;34.00;95.30;;;;;;1793098;80;21186;-79
2023/07/08 11:19:49;;;;;;;9.68;6.45;;;34.00;94.50;;;;;;1814372;77;21607;-78
2023/07/08 11:22:27;;;;;;;9.95;6.10;;;34.00;95.20;;;;;;1888963;75;21115;-78
2023/07/08 11:25:19;;;;;;;8.33;5.92;;;34.00;95.60;;;;;;1872924;75;21180;-78
2023/07/08 11:27:56;;;;;;;10.32;6.42;;;34.00;95.70;;;;;;1848899;77;21098;-76
2023/07/08 11:30:34;;;;;;;8.25;5.92;;;34.00;96.40;;;;;;1897772;74;21114;-77
2023/07/08 11:33:20;;;;;;;9.05;6.03;;;34.00;95.90;;;;;;1844628;77;21099;-78
2023/07/08 11:36:06;;;;;;;9.45;5.62;;;33.90;94.80;;;;;;1868547;75;21154;-76
2023/07/08 11:38:49;;;;;;;12.47;6.78;;;33.80;93.90;;;;;;1889380;76;21442;-76
2023/07/08 11:41:33;;;;;;;9.63;7.17;;;33.90;94.20;;;;;;1893609;74;21044;-77
2023/07/08 11:44:13;;;;;;;8.68;6.95;;;33.90;94.50;;;;;;1891286;75;21218;-78
2023/07/08 11:46:58;;;;;;;11.88;7.72;;;33.70;95.10;;;;;;1888977;74;21143;-78
2023/07/08 11:49:49;;;;;;;13.32;7.87;;;33.70;95.80;;;;;;1891841;75;21079;-77
2023/07/08 11:52:27;;;;;;;15.50;9.50;;;33.60;95.50;;;;;;1891425;74;21136;-78
2023/07/08 11:55:14;;;;;;;14.23;10.18;;;33.50;96.60;;;;;;1896237;74;21122;-77
2023/07/08 11:57:56;;;;;;;11.35;7.62;;;33.60;95.00;;;;;;1885409;76;21048;-79
2023/07/08 12:00:33;;;;;;;12.65;7.33;;;33.60;95.00;;;;;;1853565;75;21573;-77
2023/07/08 12:03:25;;;;;;;10.85;7.45;;;33.40;95.00;;;;;;1836970;76;21140;-77
2023/07/08 12:05:59;;;;;;;14.18;9.00;;;33.40;95.90;;;;;;1856003;76;21191;-77
2023/07/08 12:08:43;;;;;;;18.50;11.95;;;33.50;96.90;;;;;;1890652;74;21127;-78
2023/07/08 12:11:36;;;;;;;20.65;10.45;;;33.40;96.90;;;;;;1837710;77;21142;-77
2023/07/08 12:14:17;;;;;;;15.80;8.05;;;33.20;96.90;;;;;;1896383;75;21143;-77
2023/07/08 12:16:53;;;;;;;14.45;9.90;;;33.10;96.80;;;;;;1893875;75;21208;-78
2023/07/08 12:19:33;;;;;;;12.58;8.35;;;33.20;97.60;;;;;;1889951;75;21189;-77
2023/07/08 12:22:12;;;;;;;12.93;8.45;;;33.10;97.60;;;;;;1900472;75;21732;-78
2023/07/08 12:24:46;;;;;;;11.20;8.00;;;33.10;98.00;;;;;;1892679;75;21214;-78
2023/07/08 12:27:35;;;;;;;9.28;7.53;;;33.00;98.20;;;;;;1896282;75;21152;-78
2023/07/08 12:30:14;;;;;;;11.70;6.78;;;32.90;97.80;;;;;;1889139;76;21125;-78
2023/07/08 12:32:50;;;;;;;12.53;7.30;;;33.00;98.30;;;;;;1891313;74;21668;-78
2023/07/08 12:35:39;;;;;;;9.65;7.08;;;32.80;98.50;;;;;;1890251;74;21639;-79
2023/07/08 12:38:33;;;;;;;12.58;6.70;;;33.00;99.10;;;;;;1861179;75;21238;-77
2023/07/08 12:41:21;;;;;;;10.03;6.20;;;32.80;99.50;;;;;;1899102;74;21144;-77
2023/07/08 12:43:57;;;;;;;12.68;7.83;;;32.80;99.10;;;;;;1861177;76;21138;-77
2023/07/08 12:46:42;;;;;;;11.88;6.85;;;32.60;99.20;;;;;;1860376;75;21134;-78
2023/07/08 12:49:33;;;;;;;11.28;6.97;;;32.60;99.30;;;;;;1889122;75;21232;-79
2023/07/08 12:52:25;;;;;;;9.68;6.50;;;32.50;99.20;;;;;;1889783;75;21088;-78
2023/07/08 12:55:03;;;;;;;10.10;6.75;;;32.40;99.10;;;;;;1858472;75;21146;-77
2023/07/08 12:57:55;;;;;;;9.80;6.30;;;32.50;99.10;;;;;;1858057;77;21236;-77
2023/07/08 13:00:40;;;;;;;9.08;6.80;;;32.50;99.50;;;;;;1859025;75;21674;-78
2023/07/08 13:03:19;;;;;;;9.10;6.50;;;32.50;99.60;;;;;;1893740;75;21131;-78
2023/07/08 13:06:02;;;;;;;10.50;6.00;;;32.40;99.90;;;;;;1901374;74;21680;-78
2023/07/08 13:08:52;;;;;;;10.53;7.03;;;32.30;99.60;;;;;;1862702;76;21275;-78
2023/07/08 13:11:31;;;;;;;10.50;6.60;;;32.40;99.40;;;;;;1896398;75;21113;-78
2023/07/08 13:14:23;;;;;;;10.18;6.10;;;32.30;99.40;;;;;;1897142;74;21241;-78
2023/07/08 13:17:06;;;;;;;12.33;6.95;;;32.50;99.00;;;;;;1863434;75;21086;-78
2023/07/08 13:19:43;;;;;;;8.85;5.97;;;32.20;98.20;;;;;;1865466;76;21117;-78
2023/07/08 13:22:36;;;;;;;11.15;6.53;;;32.20;97.90;;;;;;1892875;74;21230;-79
2023/07/08 13:25:23;;;;;;;11.83;6.70;;;32.10;97.90;;;;;;1903834;75;21072;-79
2023/07/08 13:28:17;;;;;;;12.18;7.12;;;32.20;98.10;;;;;;1897564;74;21482;-77
2023/07/08 13:31:00;;;;;;;12.50;6.97;;;32.30;98.90;;;;;;1865319;76;21086;-78
2023/07/08 13:33:36;;;;;;;9.70;7.12;;;32.00;98.20;;;;;;1854302;75;21256;-78
2023/07/08 13:36:14;;;;;;;10.28;6.70;;;32.20;98.30;;;;;;1842446;77;21131;-77
2023/07/08 13:38:52;;;;;;;10.38;6.40;;;32.00;97.90;;;;;;1841697;76;21174;-76
2023/07/08 13:41:44;;;;;;;9.85;7.10;;;32.20;98.10;;;;;;1847418;77;21156;-78
2023/07/08 13:44:18;;;;;;;11.22;6.67;;;32.00;97.90;;;;;;1849116;76;21254;-76
2023/07/08 13:46:55;;;;;;;9.63;6.58;;;32.00;97.80;;;;;;1839529;76;21131;-78
2023/07/08 13:49:45;;;;;;;9.38;6.62;;;32.00;97.70;;;;;;1862449;76;21221;-72
2023/07/08 13:52:24;;;;;;;16.32;7.20;;;32.00;97.80;;;;;;1867352;76;21131;-76
2023/07/08 13:55:05;;;;;;;15.13;7.67;;;32.00;97.90;;;;;;1862528;76;21180;-79